createdAt,value
2019-03-27T00:01:34.697Z,11.18
2019-03-27T00:04:02.943Z,10.00
2019-03-27T00:06:31.164Z,10.45
2019-03-27T00:08:59.399Z,12.23
2019-03-27T00:11:27.625Z,11.48
2019-03-27T00:13:55.889Z,11.25
2019-03-27T00:16:24.113Z,11.93
2019-03-27T00:18:52.350Z,11.30
2019-03-27T00:21:20.578Z,11.18
2019-03-27T00:23:48.843Z,11.70
2019-03-27T00:26:17.347Z,13.15
2019-03-27T00:28:45.580Z,12.98
2019-03-27T00:31:13.805Z,12.03
2019-03-27T00:33:42.112Z,13.08
2019-03-27T00:36:10.344Z,12.65
2019-03-27T00:38:38.582Z,13.95
2019-03-27T00:41:06.809Z,15.03
2019-03-27T00:43:35.049Z,14.50
2019-03-27T00:46:03.280Z,14.58
2019-03-27T00:48:31.513Z,15.10
2019-03-27T00:50:59.737Z,14.10
2019-03-27T00:53:27.972Z,13.68
2019-03-27T00:55:56.207Z,15.38
2019-03-27T00:58:24.464Z,15.78
2019-03-27T01:00:56.033Z,15.40
2019-03-27T01:03:24.273Z,15.93
2019-03-27T01:05:52.502Z,15.75
2019-03-27T01:08:20.748Z,15.80
2019-03-27T01:10:48.987Z,15.83
2019-03-27T01:13:17.225Z,15.40
2019-03-27T01:15:45.449Z,16.30
2019-03-27T01:18:13.681Z,15.58
2019-03-27T01:20:41.908Z,16.73
2019-03-27T01:23:10.145Z,16.05
2019-03-27T01:25:38.381Z,16.23
2019-03-27T01:28:06.614Z,15.90
2019-03-27T01:30:34.850Z,15.72
2019-03-27T01:33:03.072Z,16.42
2019-03-27T01:35:31.317Z,17.10
2019-03-27T01:37:59.541Z,14.83
2019-03-27T01:40:27.795Z,16.30
2019-03-27T01:42:56.009Z,17.52
2019-03-27T01:45:24.249Z,16.10
2019-03-27T01:47:52.476Z,16.07
2019-03-27T01:50:20.723Z,16.82
2019-03-27T01:52:48.949Z,15.05
2019-03-27T01:55:17.213Z,16.27
2019-03-27T01:57:45.439Z,16.90
2019-03-27T02:00:13.674Z,16.57
2019-03-27T02:02:41.920Z,16.20
2019-03-27T02:05:10.149Z,15.00
2019-03-27T02:07:38.381Z,15.75
2019-03-27T02:10:06.617Z,16.40
2019-03-27T02:12:34.847Z,16.85
2019-03-27T02:15:03.347Z,18.20
2019-03-27T02:17:31.584Z,16.27
2019-03-27T02:19:59.977Z,17.27
2019-03-27T02:22:28.217Z,15.58
2019-03-27T02:24:56.446Z,17.45
2019-03-27T02:27:24.681Z,16.27
2019-03-27T02:29:52.937Z,16.90
2019-03-27T02:32:21.311Z,17.12
2019-03-27T02:34:49.589Z,16.73
2019-03-27T02:37:17.911Z,17.55
2019-03-27T02:39:46.143Z,16.87
2019-03-27T02:42:14.408Z,17.30
2019-03-27T02:44:42.705Z,18.48
2019-03-27T02:47:10.950Z,19.30
2019-03-27T02:49:39.369Z,20.02
2019-03-27T02:52:07.602Z,18.02
2019-03-27T02:54:35.847Z,19.15
2019-03-27T02:57:04.073Z,19.57
2019-03-27T02:59:32.301Z,19.70
2019-03-27T03:02:00.541Z,20.90
2019-03-27T03:04:28.769Z,18.98
2019-03-27T03:06:57.004Z,19.62
2019-03-27T03:09:25.239Z,20.72
2019-03-27T03:11:53.463Z,19.90
2019-03-27T03:14:21.702Z,20.70
2019-03-27T03:16:49.920Z,20.00
2019-03-27T03:19:18.157Z,20.52
2019-03-27T03:21:46.386Z,20.12
2019-03-27T03:24:14.617Z,20.17
2019-03-27T03:26:42.854Z,21.33
2019-03-27T03:29:11.118Z,22.42
2019-03-27T03:31:39.348Z,22.00
2019-03-27T03:34:07.621Z,19.30
2019-03-27T03:36:35.881Z,22.15
2019-03-27T03:39:05.531Z,23.73
2019-03-27T03:41:33.745Z,23.07
2019-03-27T03:44:01.978Z,23.73
2019-03-27T03:46:30.209Z,21.93
2019-03-27T03:48:58.478Z,24.85
2019-03-27T03:51:26.698Z,23.60
2019-03-27T03:53:54.998Z,21.62
2019-03-27T03:56:23.231Z,22.70
2019-03-27T03:58:51.817Z,24.18
2019-03-27T04:01:20.054Z,23.60
2019-03-27T04:03:48.282Z,24.77
2019-03-27T04:06:16.535Z,21.45
2019-03-27T04:08:44.753Z,23.65
2019-03-27T04:11:12.994Z,24.05
2019-03-27T04:13:41.217Z,23.73
2019-03-27T04:16:09.453Z,24.85
2019-03-27T04:18:37.688Z,23.35
2019-03-27T04:21:05.920Z,24.70
2019-03-27T04:23:34.145Z,24.52
2019-03-27T04:26:09.555Z,24.02
2019-03-27T04:28:32.332Z,24.30
2019-03-27T04:31:00.568Z,25.23
2019-03-27T04:33:28.803Z,24.95
2019-03-27T04:35:57.045Z,26.00
2019-03-27T04:38:25.286Z,26.62
2019-03-27T04:40:53.524Z,26.55
2019-03-27T04:43:21.752Z,30.00
2019-03-27T04:45:50.005Z,28.40
2019-03-27T04:48:18.230Z,29.23
2019-03-27T04:50:46.464Z,30.48
2019-03-27T04:53:14.717Z,29.37
2019-03-27T04:55:42.932Z,30.60
2019-03-27T04:58:11.183Z,26.87
2019-03-27T05:00:39.441Z,32.03
2019-03-27T05:03:07.676Z,30.25
2019-03-27T05:05:35.895Z,31.27
2019-03-27T05:08:04.128Z,28.32
2019-03-27T05:10:32.365Z,29.48
2019-03-27T05:13:00.596Z,27.00
2019-03-27T05:15:28.821Z,28.07
2019-03-27T05:17:57.075Z,29.35
2019-03-27T05:20:28.558Z,28.75
2019-03-27T05:22:55.274Z,28.87
2019-03-27T05:25:23.499Z,26.60
2019-03-27T05:27:51.732Z,27.75
2019-03-27T05:30:27.633Z,26.65
2019-03-27T05:32:56.310Z,27.42
2019-03-27T05:35:24.552Z,28.25
2019-03-27T05:37:52.785Z,29.15
2019-03-27T05:40:21.005Z,28.20
2019-03-27T05:43:00.129Z,29.32
2019-03-27T05:45:19.198Z,30.52
2019-03-27T05:47:59.006Z,30.60
2019-03-27T05:50:17.441Z,30.90
2019-03-27T05:52:45.688Z,31.57
2019-03-27T05:55:13.924Z,31.85
2019-03-27T05:57:42.207Z,28.87
2019-03-27T06:00:11.996Z,31.70
2019-03-27T06:02:40.220Z,30.27
2019-03-27T06:05:08.461Z,31.10
2019-03-27T06:07:36.695Z,31.50
2019-03-27T06:10:06.036Z,30.35
2019-03-27T06:12:34.264Z,31.30
2019-03-27T06:15:02.504Z,30.48
2019-03-27T06:17:30.735Z,30.08
2019-03-27T06:19:59.004Z,28.73
2019-03-27T06:22:27.270Z,30.27
2019-03-27T06:24:55.518Z,28.70
2019-03-27T06:27:23.765Z,27.77
2019-03-27T06:29:52.010Z,29.63
2019-03-27T06:32:20.242Z,32.90
2019-03-27T06:34:48.516Z,31.30
2019-03-27T06:37:16.741Z,32.23
2019-03-27T06:39:44.982Z,33.20
2019-03-27T06:42:13.218Z,30.35
2019-03-27T06:44:41.461Z,30.60
2019-03-27T06:47:09.685Z,31.62
2019-03-27T06:49:37.987Z,31.90
2019-03-27T06:52:06.240Z,32.17
2019-03-27T06:54:34.486Z,30.27
2019-03-27T06:57:02.731Z,30.88
2019-03-27T06:59:32.192Z,31.90
2019-03-27T07:02:00.473Z,31.17
2019-03-27T07:04:28.701Z,32.93
2019-03-27T07:06:56.941Z,33.10
2019-03-27T07:09:25.187Z,29.77
2019-03-27T07:11:53.412Z,31.87
2019-03-27T07:14:21.664Z,31.25
2019-03-27T07:16:49.918Z,31.55
2019-03-27T07:19:20.669Z,28.80
2019-03-27T07:21:49.005Z,31.85
2019-03-27T07:24:17.248Z,31.10
2019-03-27T07:26:45.492Z,30.02
2019-03-27T07:29:13.753Z,31.97
2019-03-27T07:31:41.976Z,28.65
2019-03-27T07:34:10.212Z,30.30
2019-03-27T07:36:38.449Z,29.50
2019-03-27T07:39:11.322Z,30.48
2019-03-27T07:41:36.817Z,30.15
2019-03-27T07:44:05.046Z,27.75
2019-03-27T07:46:33.270Z,30.40
2019-03-27T07:49:01.517Z,31.40
2019-03-27T07:51:29.738Z,31.00
2019-03-27T07:53:58.037Z,30.97
2019-03-27T07:56:26.265Z,29.98
2019-03-27T07:58:54.576Z,31.27
2019-03-27T08:01:22.837Z,29.05
2019-03-27T08:03:51.065Z,29.90
2019-03-27T08:06:19.304Z,27.42
2019-03-27T08:08:47.526Z,30.97
2019-03-27T08:11:15.772Z,30.02
2019-03-27T08:13:44.002Z,30.08
2019-03-27T08:16:12.232Z,29.87
2019-03-27T08:18:40.473Z,28.80
2019-03-27T08:21:08.706Z,29.60
2019-03-27T08:23:36.957Z,28.85
2019-03-27T08:26:05.197Z,32.33
2019-03-27T08:28:33.440Z,29.10
2019-03-27T08:31:01.665Z,26.90
2019-03-27T08:33:29.913Z,29.12
2019-03-27T08:35:58.121Z,26.93
2019-03-27T08:38:26.356Z,25.37
2019-03-27T08:40:54.585Z,26.68
2019-03-27T08:43:25.473Z,29.25
2019-03-27T08:45:52.768Z,26.73
2019-03-27T08:48:21.018Z,24.85
2019-03-27T08:50:49.240Z,28.60
2019-03-27T08:53:17.486Z,27.70
2019-03-27T08:55:45.716Z,29.15
2019-03-27T08:58:13.967Z,26.35
2019-03-27T09:00:50.430Z,26.48
2019-03-27T09:03:18.746Z,28.67
2019-03-27T09:05:46.984Z,26.33
2019-03-27T09:08:15.286Z,26.75
2019-03-27T09:10:43.522Z,25.62
2019-03-27T09:13:12.120Z,27.10
2019-03-27T09:15:40.399Z,25.82
2019-03-27T09:18:08.640Z,29.40
2019-03-27T09:20:36.873Z,27.17
2019-03-27T09:23:05.113Z,27.32
2019-03-27T09:25:33.360Z,27.00
2019-03-27T09:28:01.613Z,27.70
2019-03-27T09:30:29.857Z,26.20
2019-03-27T09:32:58.078Z,29.50
2019-03-27T09:35:26.312Z,27.77
2019-03-27T09:37:54.669Z,26.55
2019-03-27T09:40:22.896Z,26.20
2019-03-27T09:42:51.125Z,23.50
2019-03-27T09:45:19.368Z,22.93
2019-03-27T09:47:47.592Z,20.50
2019-03-27T09:50:15.830Z,23.25
2019-03-27T09:52:44.058Z,22.40
2019-03-27T09:55:12.290Z,23.38
2019-03-27T09:57:40.579Z,22.82
2019-03-27T10:00:09.064Z,24.55
2019-03-27T10:02:37.305Z,24.57
2019-03-27T10:05:06.985Z,24.00
2019-03-27T10:07:35.206Z,24.95
2019-03-27T10:10:04.482Z,23.80
2019-03-27T10:12:32.701Z,22.52
2019-03-27T10:15:09.927Z,21.27
2019-03-27T10:17:38.162Z,24.15
2019-03-27T10:20:06.397Z,22.25
2019-03-27T10:22:34.655Z,22.17
2019-03-27T10:25:03.185Z,23.22
2019-03-27T10:27:31.404Z,22.67
2019-03-27T10:29:59.647Z,22.87
2019-03-27T10:32:27.873Z,22.85
2019-03-27T10:34:56.162Z,23.90
2019-03-27T10:37:24.389Z,20.68
2019-03-27T10:39:52.622Z,21.40
2019-03-27T10:42:21.009Z,22.07
2019-03-27T10:44:49.432Z,19.67
2019-03-27T10:47:17.669Z,21.00
2019-03-27T10:49:45.909Z,19.57
2019-03-27T10:52:14.136Z,19.80
2019-03-27T10:54:42.431Z,23.00
2019-03-27T10:57:10.694Z,20.10
2019-03-27T10:59:38.933Z,20.05
2019-03-27T11:02:07.160Z,20.55
2019-03-27T11:04:35.517Z,20.97
2019-03-27T11:07:03.792Z,19.98
2019-03-27T11:09:32.024Z,17.00
2019-03-27T11:12:00.254Z,18.05
2019-03-27T11:14:37.937Z,18.80
2019-03-27T11:16:58.469Z,17.98
2019-03-27T11:19:26.687Z,18.70
2019-03-27T11:21:54.921Z,19.20
2019-03-27T11:24:23.149Z,17.12
2019-03-27T11:26:51.390Z,16.48
2019-03-27T11:29:19.629Z,18.48
2019-03-27T11:31:47.871Z,17.35
2019-03-27T11:34:16.120Z,15.93
2019-03-27T11:36:44.483Z,18.00
2019-03-27T11:39:12.795Z,17.75
2019-03-27T11:41:41.034Z,15.23
2019-03-27T11:44:12.513Z,17.07
2019-03-27T11:46:39.224Z,17.07
2019-03-27T11:49:07.453Z,17.35
2019-03-27T11:51:35.695Z,17.73
2019-03-27T11:54:03.970Z,17.52
2019-03-27T11:56:32.210Z,16.42
2019-03-27T11:59:00.445Z,16.87
2019-03-27T12:01:39.328Z,16.42
2019-03-27T12:03:58.641Z,16.07
2019-03-27T12:06:26.876Z,16.10
2019-03-27T12:08:55.104Z,13.68
2019-03-27T12:11:23.348Z,16.80
2019-03-27T12:13:51.573Z,15.63
2019-03-27T12:16:19.799Z,15.75
2019-03-27T12:18:48.034Z,15.05
2019-03-27T12:21:16.256Z,16.48
2019-03-27T12:23:44.506Z,16.55
2019-03-27T12:26:12.734Z,15.15
2019-03-27T12:28:40.979Z,15.83
2019-03-27T12:31:09.272Z,15.20
2019-03-27T12:33:38.501Z,15.25
2019-03-27T12:36:06.733Z,15.45
2019-03-27T12:38:34.992Z,14.45
2019-03-27T12:41:03.268Z,14.07
2019-03-27T12:43:31.501Z,16.12
2019-03-27T12:45:59.724Z,16.77
2019-03-27T12:48:27.981Z,73.83
2019-03-27T12:50:56.206Z,34.38
2019-03-27T12:53:24.434Z,21.48
2019-03-27T12:55:52.677Z,23.65
2019-03-27T12:58:20.910Z,18.00
2019-03-27T13:00:49.146Z,14.43
2019-03-27T13:03:17.373Z,17.32
2019-03-27T13:05:45.713Z,15.03
2019-03-27T13:08:13.945Z,20.02
2019-03-27T13:10:42.182Z,16.82
2019-03-27T13:13:10.417Z,16.62
2019-03-27T13:15:38.680Z,14.30
2019-03-27T13:18:06.976Z,14.55
2019-03-27T13:20:35.217Z,15.55
2019-03-27T13:23:03.440Z,14.83
2019-03-27T13:25:31.722Z,13.05
2019-03-27T13:27:59.981Z,12.45
2019-03-27T13:30:28.217Z,18.50
2019-03-27T13:32:56.450Z,14.87
2019-03-27T13:35:24.679Z,13.53
2019-03-27T13:37:52.917Z,14.70
2019-03-27T13:40:21.161Z,12.65
2019-03-27T13:42:49.385Z,12.82
2019-03-27T13:45:17.633Z,15.40
2019-03-27T13:47:45.861Z,14.23
2019-03-27T13:50:16.086Z,12.00
2019-03-27T13:52:44.330Z,13.28
2019-03-27T13:55:12.627Z,14.70
2019-03-27T13:57:40.933Z,12.90
2019-03-27T14:00:12.083Z,13.13
2019-03-27T14:02:40.321Z,12.47
2019-03-27T14:05:08.560Z,11.70
2019-03-27T14:07:36.790Z,12.35
2019-03-27T14:10:06.735Z,12.45
2019-03-27T14:12:34.977Z,11.80
2019-03-27T14:15:24.252Z,12.88
2019-03-27T14:17:52.498Z,13.32
2019-03-27T14:20:20.724Z,14.13
2019-03-27T14:22:48.960Z,12.88
2019-03-27T14:25:17.193Z,14.23
2019-03-27T14:27:45.678Z,12.43
2019-03-27T14:30:16.533Z,13.60
2019-03-27T14:32:44.761Z,13.43
2019-03-27T14:35:12.992Z,12.40
2019-03-27T14:37:41.217Z,13.28
2019-03-27T14:40:09.531Z,12.88
2019-03-27T14:42:37.819Z,12.07
2019-03-27T14:45:08.572Z,12.30
2019-03-27T14:47:37.975Z,13.68
2019-03-27T14:50:07.626Z,14.18
2019-03-27T14:52:35.855Z,12.80
2019-03-27T14:55:05.920Z,12.65
2019-03-27T14:57:34.171Z,11.65
2019-03-27T15:00:02.765Z,13.80
2019-03-27T15:02:31.052Z,13.18
2019-03-27T15:04:59.331Z,12.45
2019-03-27T15:07:27.575Z,13.50
2019-03-27T15:09:55.796Z,12.18
2019-03-27T15:12:24.036Z,12.73
2019-03-27T15:14:52.305Z,12.45
2019-03-27T15:17:20.531Z,11.97
2019-03-27T15:19:48.764Z,12.68
2019-03-27T15:22:22.635Z,12.70
2019-03-27T15:24:46.977Z,14.23
2019-03-27T15:27:15.263Z,12.10
2019-03-27T15:29:43.511Z,11.97
2019-03-27T15:32:11.783Z,12.00
2019-03-27T15:34:40.004Z,11.43
2019-03-27T15:37:08.255Z,12.98
2019-03-27T15:39:36.489Z,12.65
2019-03-27T15:42:04.730Z,10.75
2019-03-27T15:44:32.963Z,11.55
2019-03-27T15:47:01.207Z,10.08
2019-03-27T15:49:29.429Z,11.30
2019-03-27T15:51:57.661Z,11.05
2019-03-27T15:54:25.941Z,11.22
2019-03-27T15:56:54.181Z,11.85
2019-03-27T15:59:22.409Z,10.28
2019-03-27T16:01:50.667Z,10.28
2019-03-27T16:04:18.951Z,9.13
2019-03-27T16:06:47.182Z,10.35
2019-03-27T16:09:20.498Z,10.55
2019-03-27T16:11:47.342Z,10.78
2019-03-27T16:14:15.573Z,10.18
2019-03-27T16:17:01.240Z,11.85
2019-03-27T16:19:13.801Z,10.80
2019-03-27T16:21:42.042Z,10.63
2019-03-27T16:24:10.265Z,10.43
2019-03-27T16:26:38.512Z,11.83
2019-03-27T16:29:06.736Z,10.30
2019-03-27T16:31:34.981Z,10.60
2019-03-27T16:34:03.204Z,9.95
2019-03-27T16:36:31.459Z,9.20
2019-03-27T16:38:59.773Z,11.12
2019-03-27T16:41:28.114Z,9.58
2019-03-27T16:43:56.326Z,12.20
2019-03-27T16:46:27.731Z,10.38
2019-03-27T16:48:55.948Z,9.63
2019-03-27T16:51:24.186Z,10.10
2019-03-27T16:53:52.419Z,9.98
2019-03-27T16:56:20.647Z,9.18
2019-03-27T16:59:08.319Z,22.75
2019-03-27T17:01:36.554Z,11.38
2019-03-27T17:04:04.788Z,14.70
2019-03-27T17:06:33.019Z,46.77
2019-03-27T17:09:01.346Z,26.07
2019-03-27T17:11:29.686Z,28.17
2019-03-27T17:13:57.921Z,20.95
2019-03-27T17:16:26.180Z,38.30
2019-03-27T17:18:54.410Z,43.63
2019-03-27T17:21:22.654Z,123.07
2019-03-27T17:23:50.882Z,18.80
2019-03-27T17:26:19.123Z,42.88
2019-03-27T17:28:47.356Z,9.88
2019-03-27T17:31:15.585Z,9.90
2019-03-27T17:33:43.815Z,10.20
2019-03-27T17:36:12.044Z,10.60
2019-03-27T17:38:40.279Z,9.95
2019-03-27T17:41:08.536Z,9.23
2019-03-27T17:43:36.763Z,9.45
2019-03-27T17:46:05.002Z,10.65
2019-03-27T17:48:33.311Z,9.20
2019-03-27T17:51:01.524Z,9.55
2019-03-27T17:53:31.836Z,8.50
2019-03-27T17:55:59.788Z,9.43
2019-03-27T17:58:28.197Z,10.63
2019-03-27T18:00:57.606Z,10.80
2019-03-27T18:03:25.841Z,10.43
2019-03-27T18:05:54.073Z,8.85
2019-03-27T18:08:22.333Z,9.48
2019-03-27T18:10:50.613Z,9.05
2019-03-27T18:13:18.849Z,10.32
2019-03-27T18:15:47.072Z,8.95
2019-03-27T18:18:15.316Z,10.32
2019-03-27T18:20:43.553Z,10.93
2019-03-27T18:23:13.585Z,9.73
2019-03-27T18:25:41.825Z,9.60
2019-03-27T18:28:10.055Z,10.08
2019-03-27T18:30:38.287Z,10.23
2019-03-27T18:33:06.553Z,9.60
2019-03-27T18:35:34.783Z,9.45
2019-03-27T18:38:03.016Z,12.60
2019-03-27T18:40:31.243Z,16.82
2019-03-27T18:42:59.476Z,12.23
2019-03-27T18:45:27.714Z,12.85
2019-03-27T18:47:56.057Z,10.55
2019-03-27T18:50:24.289Z,11.08
2019-03-27T18:52:52.538Z,11.63
2019-03-27T18:55:26.402Z,12.05
2019-03-27T18:58:00.022Z,12.07
2019-03-27T19:00:20.965Z,13.65
2019-03-27T19:02:49.374Z,13.75
2019-03-27T19:05:18.185Z,13.60
2019-03-27T19:07:46.525Z,15.05
2019-03-27T19:10:15.285Z,24.23
2019-03-27T19:12:44.646Z,23.38
2019-03-27T19:15:13.553Z,19.55
2019-03-27T19:17:42.326Z,15.25
2019-03-27T19:20:11.198Z,15.75
2019-03-27T19:22:40.556Z,13.25
2019-03-27T19:25:10.350Z,13.45
2019-03-27T19:27:40.276Z,13.88
2019-03-27T19:30:10.110Z,12.55
2019-03-27T19:32:40.073Z,12.45
2019-03-27T19:35:09.694Z,17.05
2019-03-27T19:37:39.280Z,13.75
2019-03-27T19:40:09.308Z,13.22
2019-03-27T19:42:39.159Z,12.10
2019-03-27T19:45:08.792Z,12.75
2019-03-27T19:47:38.484Z,14.20
2019-03-27T19:50:08.692Z,13.80
2019-03-27T19:52:38.886Z,12.95
2019-03-27T19:55:08.714Z,12.98
2019-03-27T19:57:38.658Z,12.60
2019-03-27T20:00:09.730Z,14.40
2019-03-27T20:02:39.671Z,13.83
2019-03-27T20:05:09.616Z,11.80
2019-03-27T20:07:58.427Z,14.20
2019-03-27T20:10:28.403Z,13.03
2019-03-27T20:12:58.300Z,17.87
2019-03-27T20:15:28.243Z,18.82
2019-03-27T20:17:57.938Z,19.30
2019-03-27T20:20:27.666Z,17.15
2019-03-27T20:22:57.584Z,19.75
2019-03-27T20:25:27.511Z,16.37
2019-03-27T20:27:57.251Z,19.27
2019-03-27T20:30:27.220Z,20.02
2019-03-27T20:32:56.934Z,22.85
2019-03-27T20:35:26.827Z,21.48
2019-03-27T20:37:56.546Z,22.48
2019-03-27T20:40:27.761Z,20.50
2019-03-27T20:42:57.594Z,20.62
2019-03-27T20:45:27.522Z,17.32
2019-03-27T20:47:57.483Z,16.95
2019-03-27T20:50:27.403Z,18.02
2019-03-27T20:53:00.325Z,19.42
2019-03-27T20:55:31.173Z,19.23
2019-03-27T20:58:01.104Z,18.92
2019-03-27T21:00:30.707Z,16.60
2019-03-27T21:03:00.523Z,17.50
2019-03-27T21:05:51.031Z,16.82
2019-03-27T21:08:29.414Z,16.37
2019-03-27T21:13:23.231Z,16.65
2019-03-27T21:15:52.019Z,17.45
2019-03-27T21:18:21.040Z,14.53
2019-03-27T21:23:29.326Z,15.90
2019-03-27T21:26:00.759Z,13.15
2019-03-27T21:28:32.036Z,16.37
2019-03-27T21:31:03.905Z,14.85
2019-03-27T21:33:32.310Z,14.35
2019-03-27T21:36:00.624Z,15.08
2019-03-27T21:38:28.862Z,15.05
2019-03-27T21:40:57.111Z,15.18
2019-03-27T21:43:25.381Z,13.45
2019-03-27T21:45:53.637Z,14.15
2019-03-27T21:48:21.873Z,14.98
2019-03-27T21:50:50.112Z,13.32
2019-03-27T21:53:18.533Z,12.75
2019-03-27T21:55:46.868Z,14.20
2019-03-27T21:58:15.377Z,12.88
2019-03-27T22:00:44.128Z,10.38
2019-03-27T22:03:12.619Z,14.20
2019-03-27T22:05:40.857Z,14.33
2019-03-27T22:08:09.128Z,12.15
2019-03-27T22:10:37.358Z,13.65
2019-03-27T22:13:05.598Z,13.55
2019-03-27T22:15:33.841Z,13.70
2019-03-27T22:18:02.064Z,16.15
2019-03-27T22:20:30.288Z,15.32
2019-03-27T22:22:58.602Z,17.25
2019-03-27T22:25:35.981Z,17.25
2019-03-27T22:27:56.865Z,16.85
2019-03-27T22:30:25.142Z,18.92
2019-03-27T22:32:53.385Z,15.00
2019-03-27T22:35:21.609Z,16.82
2019-03-27T22:37:49.851Z,16.02
2019-03-27T22:40:18.076Z,15.13
2019-03-27T22:42:46.389Z,16.00
2019-03-27T22:45:14.612Z,16.60
2019-03-27T22:47:42.845Z,14.83
2019-03-27T22:50:12.749Z,25.97
2019-03-27T22:52:41.633Z,22.80
2019-03-27T22:55:09.917Z,20.97
2019-03-27T22:57:38.145Z,15.55
2019-03-27T23:00:10.976Z,15.35
2019-03-27T23:02:39.197Z,15.60
2019-03-27T23:05:07.449Z,16.12
2019-03-27T23:07:35.677Z,16.45
2019-03-27T23:10:05.448Z,14.33
2019-03-27T23:12:33.677Z,18.80
2019-03-27T23:15:01.913Z,16.27
2019-03-27T23:17:30.134Z,17.42
2019-03-27T23:19:58.367Z,14.87
2019-03-27T23:22:26.600Z,13.48
2019-03-27T23:24:54.837Z,18.02
2019-03-27T23:27:23.064Z,16.70
2019-03-27T23:29:51.303Z,16.65
2019-03-27T23:32:19.577Z,19.50
2019-03-27T23:34:47.848Z,17.52
2019-03-27T23:37:16.073Z,17.25
2019-03-27T23:39:44.315Z,16.67
2019-03-27T23:42:12.536Z,15.00
2019-03-27T23:44:40.782Z,17.57
2019-03-27T23:47:09.013Z,17.37
2019-03-27T23:49:37.321Z,15.65
2019-03-27T23:52:05.625Z,16.35
2019-03-27T23:54:33.853Z,15.70
2019-03-27T23:57:02.085Z,17.67
2019-03-27T23:59:30.329Z,16.32
